createdAt,value
2019-01-16T00:04:43.370Z,100272.41
2019-01-16T00:10:17.732Z,100282.23
2019-01-16T00:15:42.568Z,100277.27
2019-01-16T00:20:53.556Z,100280.91
2019-01-16T00:26:09.363Z,100282.02
2019-01-16T00:31:30.595Z,100272.45
2019-01-16T00:36:55.617Z,100281.09
2019-01-16T00:42:24.023Z,100283.59
2019-01-16T00:47:44.851Z,100277.66
2019-01-16T00:53:05.428Z,100284.03
2019-01-16T00:58:45.308Z,100279.39
2019-01-16T01:04:13.443Z,100277.32
2019-01-16T01:09:34.255Z,100284.31
2019-01-16T01:14:58.653Z,100272.36
2019-01-16T01:20:21.219Z,100275.80
2019-01-16T01:25:41.474Z,100276.19
2019-01-16T01:31:05.948Z,100280.16
2019-01-16T01:36:28.510Z,100261.63
2019-01-16T01:41:50.871Z,100265.48
2019-01-16T01:47:01.640Z,100263.52
2019-01-16T01:52:29.660Z,100259.48
2019-01-16T01:57:58.955Z,100258.89
2019-01-16T02:03:23.514Z,100257.42
2019-01-16T02:08:44.396Z,100263.03
2019-01-16T02:13:54.663Z,100254.16
2019-01-16T02:19:09.749Z,100254.09
2019-01-16T02:24:44.302Z,100251.91
2019-01-16T02:30:05.540Z,100238.78
2019-01-16T02:35:31.690Z,100250.13
2019-01-16T02:41:02.637Z,100256.38
2019-01-16T02:46:23.871Z,100250.77
2019-01-16T02:52:03.622Z,100239.97
2019-01-16T02:57:40.540Z,100236.38
2019-01-16T03:02:55.063Z,100236.42
2019-01-16T03:08:23.514Z,100228.69
2019-01-16T03:13:39.830Z,100227.55
2019-01-16T03:19:04.599Z,100225.59
2019-01-16T03:24:27.247Z,100223.80
2019-01-16T03:29:49.560Z,100218.27
2019-01-16T03:35:10.597Z,100205.58
2019-01-16T03:40:25.177Z,100195.10
2019-01-16T03:45:35.459Z,100195.76
2019-01-16T03:50:47.268Z,100192.38
2019-01-16T03:56:06.853Z,100194.39
2019-01-16T04:01:38.133Z,100180.92
2019-01-16T04:07:07.138Z,100186.05
2019-01-16T04:12:25.519Z,100180.61
2019-01-16T04:17:46.345Z,100189.48
2019-01-16T04:23:11.371Z,100172.44
2019-01-16T04:28:32.043Z,100174.62
2019-01-16T04:33:52.715Z,100171.22
2019-01-16T04:39:06.872Z,100173.78
2019-01-16T04:44:35.059Z,100168.83
2019-01-16T04:49:48.512Z,100161.45
2019-01-16T04:55:16.203Z,100155.51
2019-01-16T05:00:36.268Z,100153.00
2019-01-16T05:05:52.529Z,100157.42
2019-01-16T05:11:02.835Z,100156.02
2019-01-16T05:16:24.222Z,100152.80
2019-01-16T05:21:55.399Z,100138.07
2019-01-16T05:27:16.015Z,100140.20
2019-01-16T05:32:37.438Z,100135.03
2019-01-16T05:37:56.382Z,100138.80
2019-01-16T05:43:13.141Z,100118.67
2019-01-16T05:48:47.501Z,100120.12
2019-01-16T05:54:10.266Z,100115.11
2019-01-16T05:59:35.232Z,100102.52
2019-01-16T06:04:52.417Z,100106.98
2019-01-16T06:10:26.358Z,100100.86
2019-01-16T06:15:43.183Z,100104.75
2019-01-16T06:21:04.056Z,100094.18
2019-01-16T06:26:15.300Z,100090.43
2019-01-16T06:31:31.513Z,100085.67
2019-01-16T06:36:46.455Z,100086.20
2019-01-16T06:42:01.549Z,100085.39
2019-01-16T06:47:32.547Z,100076.56
2019-01-16T06:52:57.669Z,100072.71
2019-01-16T06:58:13.425Z,100071.52
2019-01-16T07:03:45.566Z,100077.65
2019-01-16T07:08:56.767Z,100077.25
2019-01-16T07:14:16.780Z,100082.13
2019-01-16T07:19:33.284Z,100074.61
2019-01-16T07:24:55.847Z,100063.79
2019-01-16T07:30:07.867Z,100063.34
2019-01-16T07:35:20.288Z,100062.25
2019-01-16T07:40:51.355Z,100062.84
2019-01-16T07:46:14.944Z,100055.78
2019-01-16T07:51:46.209Z,100039.38
2019-01-16T07:57:00.697Z,100058.83
2019-01-16T08:02:23.864Z,100051.49
2019-01-16T08:08:01.091Z,100043.92
2019-01-16T08:13:35.713Z,100046.86
2019-01-16T08:18:57.055Z,100042.17
2019-01-16T08:24:15.721Z,100046.03
2019-01-16T08:29:46.887Z,100031.70
2019-01-16T08:34:59.822Z,100019.83
2019-01-16T08:40:27.843Z,100015.19
2019-01-16T08:45:41.982Z,100020.98
2019-01-16T08:51:15.931Z,100013.84
2019-01-16T08:56:42.273Z,100014.36
2019-01-16T09:02:02.779Z,100011.14
2019-01-16T09:07:25.361Z,100005.39
2019-01-16T09:12:46.584Z,100000.91
2019-01-16T09:17:57.015Z,99998.91
2019-01-16T09:23:17.776Z,100000.52
2019-01-16T09:28:42.906Z,100016.91
2019-01-16T09:34:10.894Z,99990.36
2019-01-16T09:39:36.174Z,99983.61
2019-01-16T09:44:51.000Z,99990.56
2019-01-16T09:50:28.017Z,99985.52
2019-01-16T09:56:04.528Z,99979.91
2019-01-16T10:01:24.897Z,99963.23
2019-01-16T10:06:36.519Z,99978.48
2019-01-16T10:11:56.011Z,99968.73
2019-01-16T10:17:33.219Z,99976.71
2019-01-16T10:22:47.383Z,99970.09
2019-01-16T10:28:12.087Z,99959.87
2019-01-16T10:33:32.683Z,99943.62
2019-01-16T10:39:07.267Z,99950.75
2019-01-16T10:44:35.446Z,99944.36
2019-01-16T10:49:57.715Z,99930.08
2019-01-16T10:55:09.657Z,99915.35
2019-01-16T11:00:28.852Z,99912.97
2019-01-16T11:05:50.972Z,99917.37
2019-01-16T11:11:16.198Z,99911.83
2019-01-16T11:16:30.254Z,99901.06
2019-01-16T11:21:51.383Z,99893.47
2019-01-16T11:27:22.957Z,99885.08
2019-01-16T11:32:34.877Z,99884.78
2019-01-16T11:37:50.986Z,99873.19
2019-01-16T11:43:09.225Z,99875.18
2019-01-16T11:48:25.011Z,99856.23
2019-01-16T11:53:40.264Z,99844.21
2019-01-16T11:59:01.172Z,99834.63
2019-01-16T12:04:22.716Z,99833.95
2019-01-16T12:09:43.742Z,99829.06
2019-01-16T12:15:04.462Z,99821.23
2019-01-16T12:20:20.476Z,99805.14
2019-01-16T12:25:41.810Z,99793.81
2019-01-16T12:31:10.511Z,99796.10
2019-01-16T12:36:27.864Z,99782.23
2019-01-16T12:41:43.557Z,99772.21
2019-01-16T12:47:03.856Z,99776.59
2019-01-16T12:52:22.333Z,99760.12
2019-01-16T12:57:36.311Z,99761.89
2019-01-16T13:02:48.413Z,99751.78
2019-01-16T13:08:28.498Z,99746.32
2019-01-16T13:13:59.356Z,99748.95
2019-01-16T13:19:26.578Z,99739.61
2019-01-16T13:24:46.586Z,99740.12
2019-01-16T13:30:06.733Z,99729.40
2019-01-16T13:35:25.511Z,99713.19
2019-01-16T13:40:46.747Z,99720.88
2019-01-16T13:46:05.826Z,99707.44
2019-01-16T13:51:24.191Z,99706.31
2019-01-16T13:56:46.343Z,99689.88
2019-01-16T14:02:02.760Z,99700.52
2019-01-16T14:07:21.749Z,99707.83
2019-01-16T14:12:39.703Z,99742.45
2019-01-16T14:18:00.928Z,99691.05
2019-01-16T14:23:16.117Z,99692.22
2019-01-16T14:28:40.506Z,99693.90
2019-01-16T14:34:02.328Z,99687.28
2019-01-16T14:39:25.205Z,99685.73
2019-01-16T14:44:47.809Z,99667.13
2019-01-16T14:49:58.906Z,99687.44
2019-01-16T14:55:13.941Z,99667.91
2019-01-16T15:00:48.032Z,99664.31
2019-01-16T15:05:59.020Z,99683.92
2019-01-16T15:11:19.936Z,99657.87
2019-01-16T15:16:45.074Z,99668.31
2019-01-16T15:21:59.432Z,99667.89
2019-01-16T15:27:22.000Z,99671.52
2019-01-16T15:32:42.541Z,99659.14
2019-01-16T15:38:04.513Z,99664.14
2019-01-16T15:43:23.550Z,99658.50
2019-01-16T15:48:38.345Z,99644.50
2019-01-16T15:53:59.229Z,99654.16
2019-01-16T15:59:27.115Z,99645.84
2019-01-16T16:04:49.703Z,99645.75
2019-01-16T16:10:18.521Z,99632.91
2019-01-16T16:15:42.825Z,99638.48
2019-01-16T16:21:03.650Z,99626.75
2019-01-16T16:26:20.070Z,99626.08
2019-01-16T16:31:34.292Z,99612.11
2019-01-16T16:36:55.480Z,99610.88
2019-01-16T16:42:18.529Z,99594.92
2019-01-16T16:47:40.100Z,99586.58
2019-01-16T16:53:22.231Z,99579.70
2019-01-16T16:59:04.643Z,99574.80
2019-01-16T17:04:38.580Z,99573.98
2019-01-16T17:10:11.588Z,99564.63
2019-01-16T17:15:47.783Z,99549.48
2019-01-16T17:21:03.394Z,99546.30
2019-01-16T17:26:34.182Z,99535.80
2019-01-16T17:31:59.296Z,99530.29
2019-01-16T17:37:26.063Z,99514.61
2019-01-16T17:42:50.508Z,99518.71
2019-01-16T17:48:08.632Z,99521.66
2019-01-16T17:53:29.324Z,99510.17
2019-01-16T17:58:51.053Z,99506.02
2019-01-16T18:04:06.772Z,99485.61
2019-01-16T18:09:28.897Z,99482.87
2019-01-16T18:14:48.292Z,99472.52
2019-01-16T18:20:21.288Z,99468.66
2019-01-16T18:25:43.661Z,99457.22
2019-01-16T18:31:14.433Z,99458.95
2019-01-16T18:36:45.985Z,99450.39
2019-01-16T18:42:08.655Z,99446.94
2019-01-16T18:47:26.512Z,99451.70
2019-01-16T18:52:55.546Z,99436.52
2019-01-16T18:58:42.035Z,99421.73
2019-01-16T19:04:08.124Z,99407.34
2019-01-16T19:09:32.723Z,99417.86
2019-01-16T19:14:43.537Z,99401.38
2019-01-16T19:20:04.641Z,99410.62
2019-01-16T19:25:19.605Z,99400.75
2019-01-16T19:30:51.096Z,99419.03
2019-01-16T19:36:06.704Z,99392.10
2019-01-16T19:41:28.820Z,99389.52
2019-01-16T19:47:04.204Z,99384.80
2019-01-16T19:52:19.787Z,99393.74
2019-01-16T19:57:53.395Z,99375.37
2019-01-16T20:03:20.959Z,99376.30
2019-01-16T20:08:44.173Z,99358.84
2019-01-16T20:14:02.994Z,99346.44
2019-01-16T20:19:27.929Z,99336.95
2019-01-16T20:24:53.377Z,99349.34
2019-01-16T20:30:18.148Z,99338.95
2019-01-16T20:35:45.728Z,99311.31
2019-01-16T20:41:05.016Z,99320.59
2019-01-16T20:46:44.327Z,99311.61
2019-01-16T20:52:20.261Z,99309.61
2019-01-16T20:57:46.943Z,99289.89
2019-01-16T21:03:08.221Z,99286.09
2019-01-16T21:08:49.434Z,99284.98
2019-01-16T21:14:02.986Z,99285.87
2019-01-16T21:19:25.098Z,99285.59
2019-01-16T21:24:51.410Z,99261.24
2019-01-16T21:30:15.025Z,99256.99
2019-01-16T21:35:45.705Z,99241.36
2019-01-16T21:41:06.439Z,99241.67
2019-01-16T21:46:28.386Z,99220.21
2019-01-16T21:51:42.260Z,99219.53
2019-01-16T21:57:03.255Z,99211.91
2019-01-16T22:02:22.970Z,99219.38
2019-01-16T22:07:41.899Z,99232.23
2019-01-16T22:13:02.876Z,99200.91
2019-01-16T22:18:20.894Z,99195.78
2019-01-16T22:23:47.002Z,99186.41
2019-01-16T22:29:06.123Z,99193.73
2019-01-16T22:34:22.346Z,99187.50
2019-01-16T22:39:52.476Z,99185.90
2019-01-16T22:45:20.337Z,99181.52
2019-01-16T22:50:38.402Z,99173.86
2019-01-16T22:56:10.165Z,99177.22
2019-01-16T23:01:42.542Z,99147.02
2019-01-16T23:07:02.242Z,99163.77
2019-01-16T23:12:23.471Z,99157.58
2019-01-16T23:17:48.587Z,99153.23
2019-01-16T23:22:59.085Z,99130.66
2019-01-16T23:28:19.800Z,99127.86
2019-01-16T23:33:51.172Z,99111.41
2019-01-16T23:39:16.702Z,99108.73
2019-01-16T23:44:31.164Z,99109.67
2019-01-16T23:49:59.785Z,99112.95
2019-01-16T23:55:22.048Z,99103.30
